sensor_id;sensor_type;location;lat;lon;timestamp;P1;durP1;ratioP1;P2;durP2;ratioP2
44925;SDS011;30662;51.210;7.656;2024-02-14T00:00:41;12.77;;;5.90;;
44925;SDS011;30662;51.210;7.656;2024-02-14T00:03:08;11.70;;;6.88;;
44925;SDS011;30662;51.210;7.656;2024-02-14T00:05:36;9.48;;;6.53;;
44925;SDS011;30662;51.210;7.656;2024-02-14T00:08:03;14.50;;;7.38;;
44925;SDS011;30662;51.210;7.656;2024-02-14T00:10:30;8.57;;;5.57;;
44925;SDS011;30662;51.210;7.656;2024-02-14T00:12:57;9.15;;;5.97;;
44925;SDS011;30662;51.210;7.656;2024-02-14T00:15:24;17.63;;;6.80;;
44925;SDS011;30662;51.210;7.656;2024-02-14T00:17:51;10.55;;;5.97;;
44925;SDS011;30662;51.210;7.656;2024-02-14T00:20:18;11.15;;;6.15;;
44925;SDS011;30662;51.210;7.656;2024-02-14T00:22:46;8.25;;;4.70;;
44925;SDS011;30662;51.210;7.656;2024-02-14T00:25:13;8.75;;;5.85;;
44925;SDS011;30662;51.210;7.656;2024-02-14T00:27:45;10.05;;;4.93;;
44925;SDS011;30662;51.210;7.656;2024-02-14T00:30:12;12.02;;;5.18;;
44925;SDS011;30662;51.210;7.656;2024-02-14T00:32:39;6.85;;;4.65;;
44925;SDS011;30662;51.210;7.656;2024-02-14T00:35:07;10.05;;;5.25;;
44925;SDS011;30662;51.210;7.656;2024-02-14T00:37:34;5.78;;;3.97;;
44925;SDS011;30662;51.210;7.656;2024-02-14T00:40:02;11.25;;;4.72;;
44925;SDS011;30662;51.210;7.656;2024-02-14T00:42:29;9.48;;;4.18;;
44925;SDS011;30662;51.210;7.656;2024-02-14T00:44:56;6.60;;;4.13;;
44925;SDS011;30662;51.210;7.656;2024-02-14T00:47:23;7.88;;;4.32;;
44925;SDS011;30662;51.210;7.656;2024-02-14T00:49:50;6.07;;;3.90;;
44925;SDS011;30662;51.210;7.656;2024-02-14T00:52:17;7.57;;;3.90;;
44925;SDS011;30662;51.210;7.656;2024-02-14T00:54:43;6.70;;;4.03;;
44925;SDS011;30662;51.210;7.656;2024-02-14T00:57:11;7.40;;;4.22;;
44925;SDS011;30662;51.210;7.656;2024-02-14T00:59:38;6.40;;;3.90;;
44925;SDS011;30662;51.210;7.656;2024-02-14T01:02:05;5.95;;;3.38;;
44925;SDS011;30662;51.210;7.656;2024-02-14T01:04:32;8.70;;;4.00;;
44925;SDS011;30662;51.210;7.656;2024-02-14T01:06:59;7.35;;;3.80;;
44925;SDS011;30662;51.210;7.656;2024-02-14T01:09:25;5.38;;;3.63;;
44925;SDS011;30662;51.210;7.656;2024-02-14T01:11:52;8.75;;;4.53;;
44925;SDS011;30662;51.210;7.656;2024-02-14T01:14:21;6.70;;;3.60;;
44925;SDS011;30662;51.210;7.656;2024-02-14T01:16:47;7.93;;;3.60;;
44925;SDS011;30662;51.210;7.656;2024-02-14T01:19:14;7.45;;;4.78;;
44925;SDS011;30662;51.210;7.656;2024-02-14T01:21:41;10.45;;;4.28;;
44925;SDS011;30662;51.210;7.656;2024-02-14T01:24:08;6.28;;;4.10;;
44925;SDS011;30662;51.210;7.656;2024-02-14T01:26:35;6.32;;;3.92;;
44925;SDS011;30662;51.210;7.656;2024-02-14T01:29:02;5.78;;;3.65;;
44925;SDS011;30662;51.210;7.656;2024-02-14T01:31:30;6.68;;;3.67;;
44925;SDS011;30662;51.210;7.656;2024-02-14T01:33:56;8.70;;;4.22;;
44925;SDS011;30662;51.210;7.656;2024-02-14T01:36:24;7.43;;;3.83;;
44925;SDS011;30662;51.210;7.656;2024-02-14T01:38:51;10.38;;;3.78;;
44925;SDS011;30662;51.210;7.656;2024-02-14T01:41:17;8.50;;;4.45;;
44925;SDS011;30662;51.210;7.656;2024-02-14T01:43:44;9.38;;;4.20;;
44925;SDS011;30662;51.210;7.656;2024-02-14T01:46:11;7.68;;;4.07;;
44925;SDS011;30662;51.210;7.656;2024-02-14T01:48:39;11.52;;;5.18;;
44925;SDS011;30662;51.210;7.656;2024-02-14T01:51:08;6.85;;;4.50;;
44925;SDS011;30662;51.210;7.656;2024-02-14T01:53:37;9.95;;;5.65;;
44925;SDS011;30662;51.210;7.656;2024-02-14T01:56:04;6.63;;;4.38;;
44925;SDS011;30662;51.210;7.656;2024-02-14T01:58:32;8.75;;;4.47;;
44925;SDS011;30662;51.210;7.656;2024-02-14T02:01:00;10.40;;;4.80;;
44925;SDS011;30662;51.210;7.656;2024-02-14T02:03:27;5.88;;;4.28;;
44925;SDS011;30662;51.210;7.656;2024-02-14T02:05:56;6.40;;;4.30;;
44925;SDS011;30662;51.210;7.656;2024-02-14T02:08:22;10.45;;;4.60;;
44925;SDS011;30662;51.210;7.656;2024-02-14T02:10:49;8.20;;;3.97;;
44925;SDS011;30662;51.210;7.656;2024-02-14T02:13:16;7.55;;;4.10;;
44925;SDS011;30662;51.210;7.656;2024-02-14T02:15:43;9.95;;;4.55;;
44925;SDS011;30662;51.210;7.656;2024-02-14T02:18:10;6.68;;;4.68;;
44925;SDS011;30662;51.210;7.656;2024-02-14T02:20:37;7.40;;;4.65;;
44925;SDS011;30662;51.210;7.656;2024-02-14T02:23:05;10.30;;;4.57;;
44925;SDS011;30662;51.210;7.656;2024-02-14T02:25:32;8.45;;;5.20;;
44925;SDS011;30662;51.210;7.656;2024-02-14T02:27:58;7.35;;;4.55;;
44925;SDS011;30662;51.210;7.656;2024-02-14T02:30:25;9.23;;;4.97;;
44925;SDS011;30662;51.210;7.656;2024-02-14T02:32:52;7.10;;;4.00;;
44925;SDS011;30662;51.210;7.656;2024-02-14T02:35:19;6.65;;;4.55;;
44925;SDS011;30662;51.210;7.656;2024-02-14T02:37:46;9.07;;;5.00;;
44925;SDS011;30662;51.210;7.656;2024-02-14T02:40:14;8.70;;;4.07;;
44925;SDS011;30662;51.210;7.656;2024-02-14T02:42:40;7.03;;;4.25;;
44925;SDS011;30662;51.210;7.656;2024-02-14T02:45:07;6.43;;;4.25;;
44925;SDS011;30662;51.210;7.656;2024-02-14T02:47:35;10.23;;;4.70;;
44925;SDS011;30662;51.210;7.656;2024-02-14T02:50:01;6.65;;;4.05;;
44925;SDS011;30662;51.210;7.656;2024-02-14T02:52:29;5.90;;;3.97;;
44925;SDS011;30662;51.210;7.656;2024-02-14T02:54:55;5.32;;;3.75;;
44925;SDS011;30662;51.210;7.656;2024-02-14T02:57:24;6.07;;;4.15;;
44925;SDS011;30662;51.210;7.656;2024-02-14T02:59:50;6.40;;;4.03;;
44925;SDS011;30662;51.210;7.656;2024-02-14T03:02:18;6.95;;;4.38;;
44925;SDS011;30662;51.210;7.656;2024-02-14T03:04:45;6.85;;;4.40;;
44925;SDS011;30662;51.210;7.656;2024-02-14T03:07:18;8.60;;;4.50;;
44925;SDS011;30662;51.210;7.656;2024-02-14T03:09:45;5.75;;;4.10;;
44925;SDS011;30662;51.210;7.656;2024-02-14T03:12:11;11.57;;;4.00;;
44925;SDS011;30662;51.210;7.656;2024-02-14T03:14:40;6.60;;;4.28;;
44925;SDS011;30662;51.210;7.656;2024-02-14T03:17:06;5.47;;;3.90;;
44925;SDS011;30662;51.210;7.656;2024-02-14T03:19:33;3.83;;;3.47;;
44925;SDS011;30662;51.210;7.656;2024-02-14T03:22:00;5.60;;;3.42;;
44925;SDS011;30662;51.210;7.656;2024-02-14T03:24:26;5.40;;;3.80;;
44925;SDS011;30662;51.210;7.656;2024-02-14T03:26:58;3.78;;;3.40;;
44925;SDS011;30662;51.210;7.656;2024-02-14T03:29:24;6.30;;;3.80;;
44925;SDS011;30662;51.210;7.656;2024-02-14T03:31:52;7.90;;;3.25;;
44925;SDS011;30662;51.210;7.656;2024-02-14T03:34:19;4.90;;;3.10;;
44925;SDS011;30662;51.210;7.656;2024-02-14T03:36:46;6.53;;;3.40;;
44925;SDS011;30662;51.210;7.656;2024-02-14T03:39:13;4.00;;;2.95;;
44925;SDS011;30662;51.210;7.656;2024-02-14T03:41:40;6.90;;;3.40;;
44925;SDS011;30662;51.210;7.656;2024-02-14T03:44:06;5.25;;;3.75;;
44925;SDS011;30662;51.210;7.656;2024-02-14T03:46:33;4.22;;;3.60;;
44925;SDS011;30662;51.210;7.656;2024-02-14T03:49:01;5.50;;;3.83;;
44925;SDS011;30662;51.210;7.656;2024-02-14T03:51:28;6.30;;;4.00;;
44925;SDS011;30662;51.210;7.656;2024-02-14T03:53:55;6.80;;;3.45;;
44925;SDS011;30662;51.210;7.656;2024-02-14T03:56:21;7.20;;;3.45;;
44925;SDS011;30662;51.210;7.656;2024-02-14T03:58:48;4.65;;;3.00;;
44925;SDS011;30662;51.210;7.656;2024-02-14T04:01:14;7.00;;;3.15;;
44925;SDS011;30662;51.210;7.656;2024-02-14T04:03:41;4.75;;;3.20;;
44925;SDS011;30662;51.210;7.656;2024-02-14T04:06:09;6.97;;;3.17;;
44925;SDS011;30662;51.210;7.656;2024-02-14T04:08:36;4.55;;;2.97;;
44925;SDS011;30662;51.210;7.656;2024-02-14T04:11:03;5.60;;;2.83;;
44925;SDS011;30662;51.210;7.656;2024-02-14T04:13:30;3.53;;;2.83;;
44925;SDS011;30662;51.210;7.656;2024-02-14T04:15:57;5.07;;;2.90;;
44925;SDS011;30662;51.210;7.656;2024-02-14T04:18:23;4.57;;;3.20;;
44925;SDS011;30662;51.210;7.656;2024-02-14T04:20:50;7.10;;;3.38;;
44925;SDS011;30662;51.210;7.656;2024-02-14T04:23:18;5.65;;;2.97;;
44925;SDS011;30662;51.210;7.656;2024-02-14T04:25:45;5.00;;;3.28;;
44925;SDS011;30662;51.210;7.656;2024-02-14T04:28:12;4.97;;;3.20;;
44925;SDS011;30662;51.210;7.656;2024-02-14T04:30:38;3.20;;;2.83;;
44925;SDS011;30662;51.210;7.656;2024-02-14T04:33:05;7.47;;;2.85;;
44925;SDS011;30662;51.210;7.656;2024-02-14T04:35:37;6.70;;;3.50;;
44925;SDS011;30662;51.210;7.656;2024-02-14T04:38:04;4.00;;;3.00;;
44925;SDS011;30662;51.210;7.656;2024-02-14T04:40:32;3.10;;;2.80;;
44925;SDS011;30662;51.210;7.656;2024-02-14T04:42:59;3.10;;;2.80;;
44925;SDS011;30662;51.210;7.656;2024-02-14T04:45:26;5.13;;;3.00;;
44925;SDS011;30662;51.210;7.656;2024-02-14T04:47:53;6.53;;;3.70;;
44925;SDS011;30662;51.210;7.656;2024-02-14T04:50:19;5.93;;;3.20;;
44925;SDS011;30662;51.210;7.656;2024-02-14T04:52:46;5.63;;;3.38;;
44925;SDS011;30662;51.210;7.656;2024-02-14T04:55:13;4.18;;;2.97;;
44925;SDS011;30662;51.210;7.656;2024-02-14T04:57:41;8.07;;;3.70;;
44925;SDS011;30662;51.210;7.656;2024-02-14T05:00:08;3.63;;;3.33;;
44925;SDS011;30662;51.210;7.656;2024-02-14T05:02:36;3.90;;;3.50;;
44925;SDS011;30662;51.210;7.656;2024-02-14T05:05:03;4.00;;;3.50;;
44925;SDS011;30662;51.210;7.656;2024-02-14T05:07:30;4.88;;;3.20;;
44925;SDS011;30662;51.210;7.656;2024-02-14T05:09:56;15.57;;;8.23;;
44925;SDS011;30662;51.210;7.656;2024-02-14T05:12:23;4.97;;;3.25;;
44925;SDS011;30662;51.210;7.656;2024-02-14T05:14:51;4.88;;;3.00;;
44925;SDS011;30662;51.210;7.656;2024-02-14T05:17:18;5.75;;;3.40;;
44925;SDS011;30662;51.210;7.656;2024-02-14T05:19:44;6.57;;;3.25;;
44925;SDS011;30662;51.210;7.656;2024-02-14T05:22:11;6.40;;;3.70;;
44925;SDS011;30662;51.210;7.656;2024-02-14T05:24:38;4.95;;;3.38;;
44925;SDS011;30662;51.210;7.656;2024-02-14T05:27:04;6.03;;;3.78;;
44925;SDS011;30662;51.210;7.656;2024-02-14T05:29:32;4.30;;;3.88;;
44925;SDS011;30662;51.210;7.656;2024-02-14T05:32:03;4.10;;;3.70;;
44925;SDS011;30662;51.210;7.656;2024-02-14T05:34:30;5.97;;;4.25;;
44925;SDS011;30662;51.210;7.656;2024-02-14T05:36:57;5.40;;;4.47;;
44925;SDS011;30662;51.210;7.656;2024-02-14T05:39:24;4.55;;;4.15;;
44925;SDS011;30662;51.210;7.656;2024-02-14T05:41:51;4.38;;;3.70;;
44925;SDS011;30662;51.210;7.656;2024-02-14T05:44:17;5.72;;;4.10;;
44925;SDS011;30662;51.210;7.656;2024-02-14T05:46:44;4.43;;;3.83;;
44925;SDS011;30662;51.210;7.656;2024-02-14T05:49:12;6.45;;;4.00;;
44925;SDS011;30662;51.210;7.656;2024-02-14T05:51:39;5.47;;;4.22;;
44925;SDS011;30662;51.210;7.656;2024-02-14T05:54:06;5.25;;;4.45;;
44925;SDS011;30662;51.210;7.656;2024-02-14T05:56:32;5.47;;;4.55;;
44925;SDS011;30662;51.210;7.656;2024-02-14T05:58:59;5.60;;;4.22;;
44925;SDS011;30662;51.210;7.656;2024-02-14T06:01:26;5.72;;;4.07;;
44925;SDS011;30662;51.210;7.656;2024-02-14T06:03:52;4.85;;;4.28;;
44925;SDS011;30662;51.210;7.656;2024-02-14T06:06:21;5.43;;;4.45;;
44925;SDS011;30662;51.210;7.656;2024-02-14T06:08:47;5.85;;;3.97;;
44925;SDS011;30662;51.210;7.656;2024-02-14T06:11:14;5.05;;;4.15;;
44925;SDS011;30662;51.210;7.656;2024-02-14T06:13:41;7.68;;;4.55;;
44925;SDS011;30662;51.210;7.656;2024-02-14T06:16:10;5.35;;;4.82;;
44925;SDS011;30662;51.210;7.656;2024-02-14T06:18:37;6.82;;;3.83;;
44925;SDS011;30662;51.210;7.656;2024-02-14T06:21:04;4.30;;;3.90;;
44925;SDS011;30662;51.210;7.656;2024-02-14T06:23:32;4.60;;;4.00;;
44925;SDS011;30662;51.210;7.656;2024-02-14T06:25:59;6.60;;;3.80;;
44925;SDS011;30662;51.210;7.656;2024-02-14T06:28:25;4.05;;;3.65;;
44925;SDS011;30662;51.210;7.656;2024-02-14T06:30:52;6.28;;;3.80;;
44925;SDS011;30662;51.210;7.656;2024-02-14T06:33:18;5.70;;;3.92;;
44925;SDS011;30662;51.210;7.656;2024-02-14T06:35:45;4.00;;;3.60;;
44925;SDS011;30662;51.210;7.656;2024-02-14T06:38:12;7.88;;;3.65;;
44925;SDS011;30662;51.210;7.656;2024-02-14T06:40:40;4.97;;;3.42;;
44925;SDS011;30662;51.210;7.656;2024-02-14T06:43:07;4.93;;;4.15;;
44925;SDS011;30662;51.210;7.656;2024-02-14T06:45:34;4.38;;;3.97;;
44925;SDS011;30662;51.210;7.656;2024-02-14T06:48:00;6.25;;;3.92;;
44925;SDS011;30662;51.210;7.656;2024-02-14T06:50:27;4.15;;;3.75;;
44925;SDS011;30662;51.210;7.656;2024-02-14T06:52:54;4.07;;;3.65;;
44925;SDS011;30662;51.210;7.656;2024-02-14T06:55:21;7.18;;;4.35;;
44925;SDS011;30662;51.210;7.656;2024-02-14T06:57:49;5.55;;;4.15;;
44925;SDS011;30662;51.210;7.656;2024-02-14T07:00:16;4.95;;;4.45;;
44925;SDS011;30662;51.210;7.656;2024-02-14T07:02:43;5.85;;;4.78;;
44925;SDS011;30662;51.210;7.656;2024-02-14T07:05:10;5.25;;;4.75;;
44925;SDS011;30662;51.210;7.656;2024-02-14T07:07:36;5.32;;;4.88;;
44925;SDS011;30662;51.210;7.656;2024-02-14T07:10:03;5.20;;;4.70;;
44925;SDS011;30662;51.210;7.656;2024-02-14T07:12:31;5.22;;;4.72;;
44925;SDS011;30662;51.210;7.656;2024-02-14T07:14:59;5.68;;;5.13;;
44925;SDS011;30662;51.210;7.656;2024-02-14T07:17:26;7.18;;;6.38;;
44925;SDS011;30662;51.210;7.656;2024-02-14T07:19:52;8.25;;;5.57;;
44925;SDS011;30662;51.210;7.656;2024-02-14T07:22:19;6.10;;;4.63;;
44925;SDS011;30662;51.210;7.656;2024-02-14T07:24:48;4.93;;;4.43;;
44925;SDS011;30662;51.210;7.656;2024-02-14T07:27:15;5.90;;;4.57;;
44925;SDS011;30662;51.210;7.656;2024-02-14T07:29:42;5.55;;;5.05;;
44925;SDS011;30662;51.210;7.656;2024-02-14T07:32:10;5.20;;;4.80;;
44925;SDS011;30662;51.210;7.656;2024-02-14T07:34:38;5.75;;;4.93;;
44925;SDS011;30662;51.210;7.656;2024-02-14T07:37:05;5.30;;;4.80;;
44925;SDS011;30662;51.210;7.656;2024-02-14T07:39:31;5.28;;;4.70;;
44925;SDS011;30662;51.210;7.656;2024-02-14T07:41:58;4.88;;;4.47;;
44925;SDS011;30662;51.210;7.656;2024-02-14T07:44:25;5.25;;;4.40;;
44925;SDS011;30662;51.210;7.656;2024-02-14T07:46:51;5.38;;;4.88;;
44925;SDS011;30662;51.210;7.656;2024-02-14T07:49:20;6.20;;;4.50;;
44925;SDS011;30662;51.210;7.656;2024-02-14T07:51:46;4.63;;;4.22;;
44925;SDS011;30662;51.210;7.656;2024-02-14T07:54:13;4.88;;;4.38;;
44925;SDS011;30662;51.210;7.656;2024-02-14T07:56:40;7.78;;;6.97;;
44925;SDS011;30662;51.210;7.656;2024-02-14T07:59:07;5.00;;;4.60;;
44925;SDS011;30662;51.210;7.656;2024-02-14T08:01:33;5.82;;;4.90;;
44925;SDS011;30662;51.210;7.656;2024-02-14T08:04:00;5.50;;;4.60;;
44925;SDS011;30662;51.210;7.656;2024-02-14T08:06:28;5.20;;;4.80;;
44925;SDS011;30662;51.210;7.656;2024-02-14T08:08:55;6.05;;;5.38;;
44925;SDS011;30662;51.210;7.656;2024-02-14T08:11:22;5.35;;;4.90;;
44925;SDS011;30662;51.210;7.656;2024-02-14T08:13:48;4.82;;;4.38;;
44925;SDS011;30662;51.210;7.656;2024-02-14T08:16:15;5.30;;;4.80;;
44925;SDS011;30662;51.210;7.656;2024-02-14T08:18:42;5.15;;;4.55;;
44925;SDS011;30662;51.210;7.656;2024-02-14T08:21:09;4.65;;;4.22;;
44925;SDS011;30662;51.210;7.656;2024-02-14T08:23:37;5.25;;;4.80;;
44925;SDS011;30662;51.210;7.656;2024-02-14T08:26:04;5.88;;;5.30;;
44925;SDS011;30662;51.210;7.656;2024-02-14T08:28:30;5.85;;;4.40;;
44925;SDS011;30662;51.210;7.656;2024-02-14T08:30:57;5.03;;;3.97;;
44925;SDS011;30662;51.210;7.656;2024-02-14T08:33:24;6.10;;;4.40;;
44925;SDS011;30662;51.210;7.656;2024-02-14T08:35:51;6.28;;;3.72;;
44925;SDS011;30662;51.210;7.656;2024-02-14T08:38:17;4.47;;;4.07;;
44925;SDS011;30662;51.210;7.656;2024-02-14T08:40:46;7.05;;;4.55;;
44925;SDS011;30662;51.210;7.656;2024-02-14T08:43:12;5.20;;;4.15;;
44925;SDS011;30662;51.210;7.656;2024-02-14T08:45:39;4.32;;;3.90;;
44925;SDS011;30662;51.210;7.656;2024-02-14T08:48:06;4.43;;;4.03;;
44925;SDS011;30662;51.210;7.656;2024-02-14T08:50:33;4.85;;;4.40;;
44925;SDS011;30662;51.210;7.656;2024-02-14T08:53:00;4.10;;;3.63;;
44925;SDS011;30662;51.210;7.656;2024-02-14T08:55:26;4.88;;;3.70;;
44925;SDS011;30662;51.210;7.656;2024-02-14T08:57:55;4.85;;;3.78;;
44925;SDS011;30662;51.210;7.656;2024-02-14T09:00:21;3.60;;;3.28;;
44925;SDS011;30662;51.210;7.656;2024-02-14T09:02:48;4.38;;;3.08;;
44925;SDS011;30662;51.210;7.656;2024-02-14T09:05:15;3.95;;;3.03;;
44925;SDS011;30662;51.210;7.656;2024-02-14T09:07:42;4.10;;;3.70;;
44925;SDS011;30662;51.210;7.656;2024-02-14T09:10:09;4.00;;;3.22;;
44925;SDS011;30662;51.210;7.656;2024-02-14T09:12:36;3.78;;;3.03;;
44925;SDS011;30662;51.210;7.656;2024-02-14T09:15:04;3.47;;;2.78;;
44925;SDS011;30662;51.210;7.656;2024-02-14T09:17:32;3.78;;;3.25;;
44925;SDS011;30662;51.210;7.656;2024-02-14T09:19:59;3.83;;;3.20;;
44925;SDS011;30662;51.210;7.656;2024-02-14T09:22:26;3.63;;;3.00;;
44925;SDS011;30662;51.210;7.656;2024-02-14T09:24:52;4.22;;;3.50;;
44925;SDS011;30662;51.210;7.656;2024-02-14T09:27:19;4.40;;;2.95;;
44925;SDS011;30662;51.210;7.656;2024-02-14T09:29:46;4.97;;;3.50;;
44925;SDS011;30662;51.210;7.656;2024-02-14T09:32:14;3.67;;;3.05;;
44925;SDS011;30662;51.210;7.656;2024-02-14T09:34:41;3.58;;;3.28;;
44925;SDS011;30662;51.210;7.656;2024-02-14T09:37:08;3.35;;;3.05;;
44925;SDS011;30662;51.210;7.656;2024-02-14T09:39:35;3.17;;;2.65;;
44925;SDS011;30662;51.210;7.656;2024-02-14T09:42:01;3.63;;;2.75;;
44925;SDS011;30662;51.210;7.656;2024-02-14T09:44:32;2.67;;;2.28;;
44925;SDS011;30662;51.210;7.656;2024-02-14T09:47:00;3.80;;;2.92;;
44925;SDS011;30662;51.210;7.656;2024-02-14T09:49:29;3.00;;;2.70;;
44925;SDS011;30662;51.210;7.656;2024-02-14T09:51:57;5.47;;;3.30;;
44925;SDS011;30662;51.210;7.656;2024-02-14T09:54:27;5.03;;;3.25;;
44925;SDS011;30662;51.210;7.656;2024-02-14T09:56:54;5.55;;;3.75;;
44925;SDS011;30662;51.210;7.656;2024-02-14T09:59:21;6.25;;;3.30;;
44925;SDS011;30662;51.210;7.656;2024-02-14T10:01:48;4.20;;;3.42;;
44925;SDS011;30662;51.210;7.656;2024-02-14T10:04:15;21.20;;;14.13;;
44925;SDS011;30662;51.210;7.656;2024-02-14T10:06:43;6.05;;;4.15;;
44925;SDS011;30662;51.210;7.656;2024-02-14T10:09:10;6.70;;;2.83;;
44925;SDS011;30662;51.210;7.656;2024-02-14T10:11:37;3.83;;;2.30;;
44925;SDS011;30662;51.210;7.656;2024-02-14T10:14:04;3.33;;;2.47;;
44925;SDS011;30662;51.210;7.656;2024-02-14T10:16:31;6.95;;;2.75;;
44925;SDS011;30662;51.210;7.656;2024-02-14T10:18:58;5.43;;;2.65;;
44925;SDS011;30662;51.210;7.656;2024-02-14T10:21:25;4.13;;;2.75;;
44925;SDS011;30662;51.210;7.656;2024-02-14T10:23:53;6.45;;;2.60;;
44925;SDS011;30662;51.210;7.656;2024-02-14T10:26:20;3.92;;;2.63;;
44925;SDS011;30662;51.210;7.656;2024-02-14T10:28:47;5.60;;;2.50;;
44925;SDS011;30662;51.210;7.656;2024-02-14T10:31:16;4.88;;;2.50;;
44925;SDS011;30662;51.210;7.656;2024-02-14T10:33:42;4.55;;;2.38;;
44925;SDS011;30662;51.210;7.656;2024-02-14T10:36:10;2.97;;;2.60;;
44925;SDS011;30662;51.210;7.656;2024-02-14T10:38:39;4.05;;;2.50;;
44925;SDS011;30662;51.210;7.656;2024-02-14T10:41:07;6.13;;;2.60;;
44925;SDS011;30662;51.210;7.656;2024-02-14T10:43:36;4.07;;;2.42;;
44925;SDS011;30662;51.210;7.656;2024-02-14T10:46:07;4.57;;;2.67;;
44925;SDS011;30662;51.210;7.656;2024-02-14T10:48:38;7.35;;;4.60;;
44925;SDS011;30662;51.210;7.656;2024-02-14T10:51:06;2.40;;;2.05;;
44925;SDS011;30662;51.210;7.656;2024-02-14T10:53:35;4.18;;;1.80;;
44925;SDS011;30662;51.210;7.656;2024-02-14T10:56:05;2.50;;;2.00;;
44925;SDS011;30662;51.210;7.656;2024-02-14T10:58:34;4.60;;;1.95;;
44925;SDS011;30662;51.210;7.656;2024-02-14T11:01:01;3.97;;;2.00;;
44925;SDS011;30662;51.210;7.656;2024-02-14T11:03:29;2.33;;;1.92;;
44925;SDS011;30662;51.210;7.656;2024-02-14T11:05:56;4.20;;;2.35;;
44925;SDS011;30662;51.210;7.656;2024-02-14T11:08:28;4.22;;;2.00;;
44925;SDS011;30662;51.210;7.656;2024-02-14T11:10:56;3.38;;;2.10;;
44925;SDS011;30662;51.210;7.656;2024-02-14T11:13:26;12.10;;;2.88;;
44925;SDS011;30662;51.210;7.656;2024-02-14T11:15:53;5.13;;;2.40;;
44925;SDS011;30662;51.210;7.656;2024-02-14T11:18:24;4.30;;;2.20;;
44925;SDS011;30662;51.210;7.656;2024-02-14T11:20:51;4.35;;;2.10;;
44925;SDS011;30662;51.210;7.656;2024-02-14T11:23:21;4.07;;;1.67;;
44925;SDS011;30662;51.210;7.656;2024-02-14T11:25:49;3.05;;;1.42;;
44925;SDS011;30662;51.210;7.656;2024-02-14T11:28:17;3.67;;;1.67;;
44925;SDS011;30662;51.210;7.656;2024-02-14T11:30:45;6.53;;;1.70;;
44925;SDS011;30662;51.210;7.656;2024-02-14T11:33:13;4.53;;;1.63;;
44925;SDS011;30662;51.210;7.656;2024-02-14T11:35:42;2.60;;;1.30;;
44925;SDS011;30662;51.210;7.656;2024-02-14T11:38:09;4.25;;;1.67;;
44925;SDS011;30662;51.210;7.656;2024-02-14T11:40:36;3.13;;;1.42;;
44925;SDS011;30662;51.210;7.656;2024-02-14T11:43:03;4.80;;;1.88;;
44925;SDS011;30662;51.210;7.656;2024-02-14T11:45:31;4.18;;;2.45;;
44925;SDS011;30662;51.210;7.656;2024-02-14T11:47:59;3.60;;;1.70;;
44925;SDS011;30662;51.210;7.656;2024-02-14T11:50:27;4.45;;;2.10;;
44925;SDS011;30662;51.210;7.656;2024-02-14T11:52:53;3.97;;;1.60;;
44925;SDS011;30662;51.210;7.656;2024-02-14T11:55:26;2.83;;;1.55;;
44925;SDS011;30662;51.210;7.656;2024-02-14T11:57:54;4.20;;;1.70;;
44925;SDS011;30662;51.210;7.656;2024-02-14T12:00:21;2.40;;;1.35;;
44925;SDS011;30662;51.210;7.656;2024-02-14T12:02:48;4.85;;;1.80;;
44925;SDS011;30662;51.210;7.656;2024-02-14T12:05:16;1.55;;;1.10;;
44925;SDS011;30662;51.210;7.656;2024-02-14T12:07:43;3.70;;;1.38;;
44925;SDS011;30662;51.210;7.656;2024-02-14T12:10:11;8.07;;;3.55;;
44925;SDS011;30662;51.210;7.656;2024-02-14T12:12:37;2.20;;;1.25;;
44925;SDS011;30662;51.210;7.656;2024-02-14T12:15:04;3.53;;;1.73;;
44925;SDS011;30662;51.210;7.656;2024-02-14T12:17:35;7.97;;;1.65;;
44925;SDS011;30662;51.210;7.656;2024-02-14T12:20:07;4.45;;;1.55;;
44925;SDS011;30662;51.210;7.656;2024-02-14T12:22:36;3.83;;;1.40;;
44925;SDS011;30662;51.210;7.656;2024-02-14T12:25:03;3.83;;;1.30;;
44925;SDS011;30662;51.210;7.656;2024-02-14T12:27:31;2.22;;;1.15;;
44925;SDS011;30662;51.210;7.656;2024-02-14T12:29:58;3.00;;;1.77;;
44925;SDS011;30662;51.210;7.656;2024-02-14T12:32:25;2.70;;;1.30;;
44925;SDS011;30662;51.210;7.656;2024-02-14T12:34:51;5.03;;;1.20;;
44925;SDS011;30662;51.210;7.656;2024-02-14T12:37:22;3.88;;;1.63;;
44925;SDS011;30662;51.210;7.656;2024-02-14T12:39:50;2.55;;;1.52;;
44925;SDS011;30662;51.210;7.656;2024-02-14T12:42:17;3.33;;;1.45;;
44925;SDS011;30662;51.210;7.656;2024-02-14T12:44:43;2.05;;;1.10;;
44925;SDS011;30662;51.210;7.656;2024-02-14T12:47:10;1.58;;;1.23;;
44925;SDS011;30662;51.210;7.656;2024-02-14T12:49:39;3.75;;;1.40;;
44925;SDS011;30662;51.210;7.656;2024-02-14T12:52:06;3.08;;;1.58;;
44925;SDS011;30662;51.210;7.656;2024-02-14T12:54:32;6.90;;;2.53;;
44925;SDS011;30662;51.210;7.656;2024-02-14T12:57:01;2.92;;;1.80;;
44925;SDS011;30662;51.210;7.656;2024-02-14T12:59:28;2.70;;;1.90;;
44925;SDS011;30662;51.210;7.656;2024-02-14T13:01:57;3.15;;;1.80;;
44925;SDS011;30662;51.210;7.656;2024-02-14T13:04:24;7.00;;;2.15;;
44925;SDS011;30662;51.210;7.656;2024-02-14T13:06:51;4.20;;;1.83;;
44925;SDS011;30662;51.210;7.656;2024-02-14T13:09:18;4.90;;;2.00;;
44925;SDS011;30662;51.210;7.656;2024-02-14T13:11:48;1.58;;;1.25;;
44925;SDS011;30662;51.210;7.656;2024-02-14T13:14:16;3.72;;;2.50;;
44925;SDS011;30662;51.210;7.656;2024-02-14T13:16:43;4.88;;;2.53;;
44925;SDS011;30662;51.210;7.656;2024-02-14T13:19:10;3.85;;;1.92;;
44925;SDS011;30662;51.210;7.656;2024-02-14T13:21:37;3.78;;;1.67;;
44925;SDS011;30662;51.210;7.656;2024-02-14T13:24:04;3.75;;;1.40;;
44925;SDS011;30662;51.210;7.656;2024-02-14T13:26:31;1.60;;;1.40;;
44925;SDS011;30662;51.210;7.656;2024-02-14T13:28:58;2.80;;;1.40;;
44925;SDS011;30662;51.210;7.656;2024-02-14T13:31:26;1.20;;;1.00;;
44925;SDS011;30662;51.210;7.656;2024-02-14T13:33:53;3.00;;;1.35;;
44925;SDS011;30662;51.210;7.656;2024-02-14T13:36:20;2.47;;;1.33;;
44925;SDS011;30662;51.210;7.656;2024-02-14T13:38:47;3.55;;;1.63;;
44925;SDS011;30662;51.210;7.656;2024-02-14T13:41:14;2.78;;;1.58;;
44925;SDS011;30662;51.210;7.656;2024-02-14T13:43:40;2.80;;;2.05;;
44925;SDS011;30662;51.210;7.656;2024-02-14T13:46:07;3.50;;;1.70;;
44925;SDS011;30662;51.210;7.656;2024-02-14T13:48:35;1.63;;;1.20;;
44925;SDS011;30662;51.210;7.656;2024-02-14T13:51:02;1.98;;;1.15;;
44925;SDS011;30662;51.210;7.656;2024-02-14T13:53:29;1.95;;;1.27;;
44925;SDS011;30662;51.210;7.656;2024-02-14T13:55:56;1.75;;;0.98;;
44925;SDS011;30662;51.210;7.656;2024-02-14T13:58:23;2.85;;;1.40;;
44925;SDS011;30662;51.210;7.656;2024-02-14T14:00:50;1.40;;;0.98;;
44925;SDS011;30662;51.210;7.656;2024-02-14T14:03:16;2.75;;;1.00;;
44925;SDS011;30662;51.210;7.656;2024-02-14T14:05:45;1.23;;;1.13;;
44925;SDS011;30662;51.210;7.656;2024-02-14T14:08:12;1.38;;;0.85;;
44925;SDS011;30662;51.210;7.656;2024-02-14T14:10:39;1.38;;;1.17;;
44925;SDS011;30662;51.210;7.656;2024-02-14T14:13:05;2.97;;;1.45;;
44925;SDS011;30662;51.210;7.656;2024-02-14T14:15:32;1.15;;;1.05;;
44925;SDS011;30662;51.210;7.656;2024-02-14T14:17:59;2.17;;;1.67;;
44925;SDS011;30662;51.210;7.656;2024-02-14T14:20:26;2.58;;;1.77;;
44925;SDS011;30662;51.210;7.656;2024-02-14T14:22:54;2.42;;;1.67;;
44925;SDS011;30662;51.210;7.656;2024-02-14T14:25:21;3.67;;;1.60;;
44925;SDS011;30662;51.210;7.656;2024-02-14T14:27:48;1.50;;;1.40;;
44925;SDS011;30662;51.210;7.656;2024-02-14T14:30:14;3.60;;;2.40;;
44925;SDS011;30662;51.210;7.656;2024-02-14T14:32:41;4.28;;;2.83;;
44925;SDS011;30662;51.210;7.656;2024-02-14T14:35:08;5.28;;;3.75;;
44925;SDS011;30662;51.210;7.656;2024-02-14T14:37:35;2.67;;;2.38;;
44925;SDS011;30662;51.210;7.656;2024-02-14T14:40:04;3.75;;;1.60;;
44925;SDS011;30662;51.210;7.656;2024-02-14T14:42:32;4.35;;;2.10;;
44925;SDS011;30662;51.210;7.656;2024-02-14T14:44:58;1.85;;;1.60;;
44925;SDS011;30662;51.210;7.656;2024-02-14T14:47:25;3.05;;;1.70;;